Aviation Digital Data Service (ADDS)

Output produced by METARs form (1214 UTC 25 January 2015)
found at http://www.aviationweather.gov/adds/metars/
 
KDOV 251158Z AUTO 25008KT 10SM OVC049 02/M01 A2980 RMK AO2 SLP095 70006 T00231012 10023 20010 52029 $
TAF KDOV 2508/2614 25012KT 9999 BKN070 QNH2945INS 
     BECMG 2520/2521 VRB06KT 9999 SCT015 BKN025 620252 QNH2989INS 
     BECMG 2604/2605 VRB06KT 8000 -SN BKN015 OVC020 620159 QNH2994INS 
     BECMG 2607/2608 06010G15KT 4800 -SN OVC006 620069 QNH2993INS TX06/2520Z TNM01/2605Z